sensor_id;sensor_type;location;lat;lon;timestamp;pressure;altitude;pressure_sealevel;temperature
19948;BMP180;10135;50.702;7.276;2023-04-15T05:30:32;98666.00;;;9.70
19948;BMP180;10135;50.702;7.276;2023-04-15T05:32:33;98673.00;;;9.70
19948;BMP180;10135;50.702;7.276;2023-04-15T05:34:34;98694.00;;;9.80
19948;BMP180;10135;50.702;7.276;2023-04-15T05:36:35;98687.00;;;9.80
19948;BMP180;10135;50.702;7.276;2023-04-15T05:38:35;98681.00;;;9.90
19948;BMP180;10135;50.702;7.276;2023-04-15T05:40:36;98682.00;;;9.90
19948;BMP180;10135;50.702;7.276;2023-04-15T05:42:37;98690.00;;;10.00
19948;BMP180;10135;50.702;7.276;2023-04-15T05:44:38;98689.00;;;10.00
19948;BMP180;10135;50.702;7.276;2023-04-15T05:46:38;98692.00;;;10.10
19948;BMP180;10135;50.702;7.276;2023-04-15T05:48:39;98698.00;;;10.20
19948;BMP180;10135;50.702;7.276;2023-04-15T05:50:41;98687.00;;;10.40
19948;BMP180;10135;50.702;7.276;2023-04-15T05:52:41;98688.00;;;10.50
19948;BMP180;10135;50.702;7.276;2023-04-15T05:54:42;98691.00;;;10.60
19948;BMP180;10135;50.702;7.276;2023-04-15T05:56:43;98692.00;;;10.70
19948;BMP180;10135;50.702;7.276;2023-04-15T05:58:44;98691.00;;;10.80
19948;BMP180;10135;50.702;7.276;2023-04-15T06:00:44;98695.00;;;11.00
19948;BMP180;10135;50.702;7.276;2023-04-15T06:02:45;98701.00;;;11.20
19948;BMP180;10135;50.702;7.276;2023-04-15T06:04:46;98697.00;;;11.40
19948;BMP180;10135;50.702;7.276;2023-04-15T06:06:47;98691.00;;;11.80
19948;BMP180;10135;50.702;7.276;2023-04-15T06:08:48;98691.00;;;12.20
19948;BMP180;10135;50.702;7.276;2023-04-15T06:10:48;98694.00;;;12.80
19948;BMP180;10135;50.702;7.276;2023-04-15T06:12:49;98690.00;;;13.40
19948;BMP180;10135;50.702;7.276;2023-04-15T06:14:51;98696.00;;;14.10
19948;BMP180;10135;50.702;7.276;2023-04-15T06:16:52;98696.00;;;14.90
19948;BMP180;10135;50.702;7.276;2023-04-15T06:18:53;98706.00;;;15.60
19948;BMP180;10135;50.702;7.276;2023-04-15T06:20:54;98702.00;;;16.10
19948;BMP180;10135;50.702;7.276;2023-04-15T06:22:54;98710.00;;;16.50
19948;BMP180;10135;50.702;7.276;2023-04-15T06:24:55;98712.00;;;16.90
19948;BMP180;10135;50.702;7.276;2023-04-15T06:26:56;98718.00;;;17.40
19948;BMP180;10135;50.702;7.276;2023-04-15T06:28:57;98720.00;;;17.80
19948;BMP180;10135;50.702;7.276;2023-04-15T06:30:57;98720.00;;;18.20
19948;BMP180;10135;50.702;7.276;2023-04-15T06:32:58;98719.00;;;18.60
19948;BMP180;10135;50.702;7.276;2023-04-15T06:34:59;98719.00;;;18.90
19948;BMP180;10135;50.702;7.276;2023-04-15T06:36:59;98721.00;;;19.20
19948;BMP180;10135;50.702;7.276;2023-04-15T06:39:00;98719.00;;;19.50
19948;BMP180;10135;50.702;7.276;2023-04-15T06:41:03;98725.00;;;19.90
19948;BMP180;10135;50.702;7.276;2023-04-15T06:43:04;98720.00;;;20.20
19948;BMP180;10135;50.702;7.276;2023-04-15T06:45:05;98725.00;;;20.50
19948;BMP180;10135;50.702;7.276;2023-04-15T06:47:06;98724.00;;;20.60
19948;BMP180;10135;50.702;7.276;2023-04-15T06:49:06;98726.00;;;20.60
19948;BMP180;10135;50.702;7.276;2023-04-15T06:51:07;98723.00;;;20.50
19948;BMP180;10135;50.702;7.276;2023-04-15T06:53:08;98721.00;;;20.40
19948;BMP180;10135;50.702;7.276;2023-04-15T06:55:09;98730.00;;;20.30
19948;BMP180;10135;50.702;7.276;2023-04-15T06:57:09;98734.00;;;20.20
19948;BMP180;10135;50.702;7.276;2023-04-15T06:59:10;98733.00;;;20.10
19948;BMP180;10135;50.702;7.276;2023-04-15T07:01:12;98731.00;;;20.10
19948;BMP180;10135;50.702;7.276;2023-04-15T07:03:14;98734.00;;;20.10
19948;BMP180;10135;50.702;7.276;2023-04-15T07:05:15;98736.00;;;20.10
19948;BMP180;10135;50.702;7.276;2023-04-15T07:07:15;98745.00;;;20.20
19948;BMP180;10135;50.702;7.276;2023-04-15T07:09:16;98748.00;;;20.20
19948;BMP180;10135;50.702;7.276;2023-04-15T07:11:17;98753.00;;;20.20
19948;BMP180;10135;50.702;7.276;2023-04-15T07:13:18;98751.00;;;20.30
19948;BMP180;10135;50.702;7.276;2023-04-15T07:15:19;98761.00;;;20.30
19948;BMP180;10135;50.702;7.276;2023-04-15T07:17:20;98753.00;;;20.30
19948;BMP180;10135;50.702;7.276;2023-04-15T07:19:21;98760.00;;;20.30
19948;BMP180;10135;50.702;7.276;2023-04-15T07:21:24;98762.00;;;20.40
19948;BMP180;10135;50.702;7.276;2023-04-15T07:23:25;98764.00;;;20.30
19948;BMP180;10135;50.702;7.276;2023-04-15T07:25:25;98772.00;;;20.30
19948;BMP180;10135;50.702;7.276;2023-04-15T07:27:26;98770.00;;;20.20
19948;BMP180;10135;50.702;7.276;2023-04-15T07:29:27;98767.00;;;20.20
19948;BMP180;10135;50.702;7.276;2023-04-15T07:31:27;98777.00;;;20.20
19948;BMP180;10135;50.702;7.276;2023-04-15T07:33:28;98777.00;;;20.30
19948;BMP180;10135;50.702;7.276;2023-04-15T07:35:29;98774.00;;;20.30
19948;BMP180;10135;50.702;7.276;2023-04-15T07:37:29;98778.00;;;20.30
19948;BMP180;10135;50.702;7.276;2023-04-15T07:39:30;98779.00;;;20.30
19948;BMP180;10135;50.702;7.276;2023-04-15T07:41:31;98779.00;;;20.30
19948;BMP180;10135;50.702;7.276;2023-04-15T07:43:31;98777.00;;;20.30
19948;BMP180;10135;50.702;7.276;2023-04-15T07:45:32;98778.00;;;20.20
19948;BMP180;10135;50.702;7.276;2023-04-15T07:47:33;98788.00;;;20.20
19948;BMP180;10135;50.702;7.276;2023-04-15T07:49:34;98785.00;;;20.10
19948;BMP180;10135;50.702;7.276;2023-04-15T07:51:34;98784.00;;;20.10
19948;BMP180;10135;50.702;7.276;2023-04-15T07:53:35;98788.00;;;20.10
19948;BMP180;10135;50.702;7.276;2023-04-15T07:55:36;98799.00;;;20.10
19948;BMP180;10135;50.702;7.276;2023-04-15T07:57:37;98793.00;;;20.20
19948;BMP180;10135;50.702;7.276;2023-04-15T07:59:37;98792.00;;;20.20
19948;BMP180;10135;50.702;7.276;2023-04-15T08:01:38;98794.00;;;20.20
19948;BMP180;10135;50.702;7.276;2023-04-15T08:03:39;98795.00;;;20.30
19948;BMP180;10135;50.702;7.276;2023-04-15T08:05:39;98803.00;;;20.30
19948;BMP180;10135;50.702;7.276;2023-04-15T08:07:40;98794.00;;;20.40
19948;BMP180;10135;50.702;7.276;2023-04-15T08:09:41;98802.00;;;20.30
19948;BMP180;10135;50.702;7.276;2023-04-15T08:11:41;98804.00;;;20.20
19948;BMP180;10135;50.702;7.276;2023-04-15T08:13:42;98801.00;;;20.00
19948;BMP180;10135;50.702;7.276;2023-04-15T08:15:43;98809.00;;;19.90
19948;BMP180;10135;50.702;7.276;2023-04-15T08:17:43;98803.00;;;19.70
19948;BMP180;10135;50.702;7.276;2023-04-15T08:19:44;98810.00;;;19.60
19948;BMP180;10135;50.702;7.276;2023-04-15T08:21:45;98800.00;;;19.50
19948;BMP180;10135;50.702;7.276;2023-04-15T08:23:48;98807.00;;;19.30
19948;BMP180;10135;50.702;7.276;2023-04-15T08:25:51;98813.00;;;19.30
19948;BMP180;10135;50.702;7.276;2023-04-15T08:27:54;98812.00;;;19.10
19948;BMP180;10135;50.702;7.276;2023-04-15T08:29:56;98811.00;;;19.00
19948;BMP180;10135;50.702;7.276;2023-04-15T08:31:59;98814.00;;;18.90
19948;BMP180;10135;50.702;7.276;2023-04-15T08:34:00;98815.00;;;18.80
19948;BMP180;10135;50.702;7.276;2023-04-15T08:36:01;98814.00;;;18.80
19948;BMP180;10135;50.702;7.276;2023-04-15T08:38:02;98818.00;;;18.70
19948;BMP180;10135;50.702;7.276;2023-04-15T08:40:04;98819.00;;;18.60
19948;BMP180;10135;50.702;7.276;2023-04-15T08:42:15;98824.00;;;18.50
19948;BMP180;10135;50.702;7.276;2023-04-15T08:44:17;98826.00;;;18.40
19948;BMP180;10135;50.702;7.276;2023-04-15T08:46:18;98833.00;;;18.40
19948;BMP180;10135;50.702;7.276;2023-04-15T08:48:19;98826.00;;;18.30
19948;BMP180;10135;50.702;7.276;2023-04-15T08:50:21;98826.00;;;18.30
19948;BMP180;10135;50.702;7.276;2023-04-15T08:52:25;98833.00;;;18.30
19948;BMP180;10135;50.702;7.276;2023-04-15T08:54:26;98831.00;;;18.30
19948;BMP180;10135;50.702;7.276;2023-04-15T08:56:30;98830.00;;;18.30
19948;BMP180;10135;50.702;7.276;2023-04-15T08:58:35;98833.00;;;18.30
19948;BMP180;10135;50.702;7.276;2023-04-15T09:00:36;98836.00;;;18.30
19948;BMP180;10135;50.702;7.276;2023-04-15T09:02:37;98833.00;;;18.30
19948;BMP180;10135;50.702;7.276;2023-04-15T09:04:38;98836.00;;;18.40
19948;BMP180;10135;50.702;7.276;2023-04-15T09:06:39;98835.00;;;18.40
19948;BMP180;10135;50.702;7.276;2023-04-15T09:08:40;98843.00;;;18.40
19948;BMP180;10135;50.702;7.276;2023-04-15T09:10:41;98844.00;;;18.40
19948;BMP180;10135;50.702;7.276;2023-04-15T09:12:43;98842.00;;;18.40
19948;BMP180;10135;50.702;7.276;2023-04-15T09:14:45;98841.00;;;18.30
19948;BMP180;10135;50.702;7.276;2023-04-15T09:17:02;98842.00;;;18.30
19948;BMP180;10135;50.702;7.276;2023-04-15T09:19:21;98845.00;;;18.30
19948;BMP180;10135;50.702;7.276;2023-04-15T09:21:23;98849.00;;;18.30
19948;BMP180;10135;50.702;7.276;2023-04-15T09:23:24;98853.00;;;18.20
19948;BMP180;10135;50.702;7.276;2023-04-15T09:25:26;98851.00;;;18.20
19948;BMP180;10135;50.702;7.276;2023-04-15T09:27:27;98863.00;;;18.10
19948;BMP180;10135;50.702;7.276;2023-04-15T09:29:28;98860.00;;;18.10
19948;BMP180;10135;50.702;7.276;2023-04-15T09:31:29;98866.00;;;18.10
19948;BMP180;10135;50.702;7.276;2023-04-15T09:33:31;98865.00;;;18.10
19948;BMP180;10135;50.702;7.276;2023-04-15T09:35:31;98861.00;;;18.10
19948;BMP180;10135;50.702;7.276;2023-04-15T09:37:35;98863.00;;;18.10
19948;BMP180;10135;50.702;7.276;2023-04-15T09:39:51;98874.00;;;18.10
19948;BMP180;10135;50.702;7.276;2023-04-15T09:42:07;98871.00;;;18.10
19948;BMP180;10135;50.702;7.276;2023-04-15T09:44:22;98868.00;;;18.10
19948;BMP180;10135;50.702;7.276;2023-04-15T09:46:43;98875.00;;;18.10
19948;BMP180;10135;50.702;7.276;2023-04-15T09:48:44;98871.00;;;18.20
19948;BMP180;10135;50.702;7.276;2023-04-15T09:50:46;98881.00;;;18.20
19948;BMP180;10135;50.702;7.276;2023-04-15T09:52:48;98882.00;;;18.30
19948;BMP180;10135;50.702;7.276;2023-04-15T09:54:53;98878.00;;;18.30
19948;BMP180;10135;50.702;7.276;2023-04-15T09:57:04;98868.00;;;18.30
19948;BMP180;10135;50.702;7.276;2023-04-15T09:59:05;98876.00;;;18.40
19948;BMP180;10135;50.702;7.276;2023-04-15T10:01:05;98886.00;;;18.40
19948;BMP180;10135;50.702;7.276;2023-04-15T10:03:08;98879.00;;;18.40
19948;BMP180;10135;50.702;7.276;2023-04-15T10:05:14;98883.00;;;18.40
19948;BMP180;10135;50.702;7.276;2023-04-15T10:07:17;98882.00;;;18.50
19948;BMP180;10135;50.702;7.276;2023-04-15T10:09:20;98879.00;;;18.60
19948;BMP180;10135;50.702;7.276;2023-04-15T10:11:21;98882.00;;;18.60
19948;BMP180;10135;50.702;7.276;2023-04-15T10:13:25;98885.00;;;18.70
19948;BMP180;10135;50.702;7.276;2023-04-15T10:15:28;98883.00;;;18.80
19948;BMP180;10135;50.702;7.276;2023-04-15T10:17:32;98886.00;;;18.80
19948;BMP180;10135;50.702;7.276;2023-04-15T10:19:37;98889.00;;;18.90
19948;BMP180;10135;50.702;7.276;2023-04-15T10:21:38;98886.00;;;18.90
19948;BMP180;10135;50.702;7.276;2023-04-15T10:23:40;98889.00;;;18.90
19948;BMP180;10135;50.702;7.276;2023-04-15T10:25:41;98892.00;;;18.90
19948;BMP180;10135;50.702;7.276;2023-04-15T10:27:42;98890.00;;;18.90
19948;BMP180;10135;50.702;7.276;2023-04-15T10:29:43;98886.00;;;18.90
19948;BMP180;10135;50.702;7.276;2023-04-15T10:31:45;98885.00;;;18.90
19948;BMP180;10135;50.702;7.276;2023-04-15T10:33:48;98884.00;;;18.90
19948;BMP180;10135;50.702;7.276;2023-04-15T10:35:50;98891.00;;;18.80
19948;BMP180;10135;50.702;7.276;2023-04-15T10:37:52;98889.00;;;18.80
19948;BMP180;10135;50.702;7.276;2023-04-15T10:39:52;98890.00;;;18.90
19948;BMP180;10135;50.702;7.276;2023-04-15T10:42:18;98898.00;;;18.90
19948;BMP180;10135;50.702;7.276;2023-04-15T10:44:19;98900.00;;;18.90
19948;BMP180;10135;50.702;7.276;2023-04-15T10:46:34;98891.00;;;18.90
19948;BMP180;10135;50.702;7.276;2023-04-15T10:48:38;98910.00;;;18.90
19948;BMP180;10135;50.702;7.276;2023-04-15T10:50:39;98897.00;;;19.00
19948;BMP180;10135;50.702;7.276;2023-04-15T10:52:40;98896.00;;;19.00
19948;BMP180;10135;50.702;7.276;2023-04-15T10:54:41;98905.00;;;19.00
19948;BMP180;10135;50.702;7.276;2023-04-15T10:56:50;98902.00;;;19.00
19948;BMP180;10135;50.702;7.276;2023-04-15T10:58:51;98898.00;;;19.00
19948;BMP180;10135;50.702;7.276;2023-04-15T11:00:52;98908.00;;;19.10
19948;BMP180;10135;50.702;7.276;2023-04-15T11:03:04;98903.00;;;19.00
19948;BMP180;10135;50.702;7.276;2023-04-15T11:05:06;98908.00;;;19.00
19948;BMP180;10135;50.702;7.276;2023-04-15T11:07:07;98903.00;;;19.00
19948;BMP180;10135;50.702;7.276;2023-04-15T11:09:07;98916.00;;;19.00
19948;BMP180;10135;50.702;7.276;2023-04-15T11:12:07;98914.00;;;19.00
19948;BMP180;10135;50.702;7.276;2023-04-15T11:14:14;98915.00;;;18.90
19948;BMP180;10135;50.702;7.276;2023-04-15T11:16:18;98918.00;;;18.90
19948;BMP180;10135;50.702;7.276;2023-04-15T11:18:21;98920.00;;;18.80
19948;BMP180;10135;50.702;7.276;2023-04-15T11:20:23;98911.00;;;18.80
19948;BMP180;10135;50.702;7.276;2023-04-15T11:22:23;98920.00;;;18.70
19948;BMP180;10135;50.702;7.276;2023-04-15T11:24:24;98936.00;;;18.70
19948;BMP180;10135;50.702;7.276;2023-04-15T11:26:28;98932.00;;;18.60
19948;BMP180;10135;50.702;7.276;2023-04-15T11:28:30;98935.00;;;18.50
19948;BMP180;10135;50.702;7.276;2023-04-15T11:30:34;98942.00;;;18.40
19948;BMP180;10135;50.702;7.276;2023-04-15T11:32:35;98947.00;;;18.40
19948;BMP180;10135;50.702;7.276;2023-04-15T11:34:36;98952.00;;;18.30
19948;BMP180;10135;50.702;7.276;2023-04-15T11:36:36;98955.00;;;18.30
19948;BMP180;10135;50.702;7.276;2023-04-15T11:38:42;98961.00;;;18.20
19948;BMP180;10135;50.702;7.276;2023-04-15T11:40:44;98970.00;;;18.10
19948;BMP180;10135;50.702;7.276;2023-04-15T11:42:44;98968.00;;;18.00
19948;BMP180;10135;50.702;7.276;2023-04-15T11:44:46;98977.00;;;18.00
19948;BMP180;10135;50.702;7.276;2023-04-15T11:46:47;98971.00;;;17.90
19948;BMP180;10135;50.702;7.276;2023-04-15T11:48:47;98978.00;;;17.80
19948;BMP180;10135;50.702;7.276;2023-04-15T11:51:02;98985.00;;;17.80
19948;BMP180;10135;50.702;7.276;2023-04-15T11:53:05;98987.00;;;17.80
19948;BMP180;10135;50.702;7.276;2023-04-15T11:55:07;98983.00;;;17.70
19948;BMP180;10135;50.702;7.276;2023-04-15T11:57:08;98986.00;;;17.70
19948;BMP180;10135;50.702;7.276;2023-04-15T11:59:08;98987.00;;;17.70
19948;BMP180;10135;50.702;7.276;2023-04-15T12:01:09;98989.00;;;17.60
19948;BMP180;10135;50.702;7.276;2023-04-15T12:03:39;99004.00;;;17.60
19948;BMP180;10135;50.702;7.276;2023-04-15T12:08:18;99012.00;;;17.50
19948;BMP180;10135;50.702;7.276;2023-04-15T12:10:19;99003.00;;;17.50
19948;BMP180;10135;50.702;7.276;2023-04-15T12:12:19;99009.00;;;17.40
19948;BMP180;10135;50.702;7.276;2023-04-15T12:14:31;99015.00;;;17.30
19948;BMP180;10135;50.702;7.276;2023-04-15T12:16:35;99022.00;;;17.30
19948;BMP180;10135;50.702;7.276;2023-04-15T12:18:38;99019.00;;;17.20
19948;BMP180;10135;50.702;7.276;2023-04-15T12:20:45;99029.00;;;17.10
19948;BMP180;10135;50.702;7.276;2023-04-15T12:22:46;99023.00;;;17.10
19948;BMP180;10135;50.702;7.276;2023-04-15T12:24:54;99035.00;;;17.00
19948;BMP180;10135;50.702;7.276;2023-04-15T12:26:57;99031.00;;;17.00
19948;BMP180;10135;50.702;7.276;2023-04-15T12:29:09;99048.00;;;16.90
19948;BMP180;10135;50.702;7.276;2023-04-15T12:31:11;99054.00;;;16.90
19948;BMP180;10135;50.702;7.276;2023-04-15T12:33:12;99063.00;;;16.90
19948;BMP180;10135;50.702;7.276;2023-04-15T12:35:13;99063.00;;;16.80
19948;BMP180;10135;50.702;7.276;2023-04-15T12:37:14;99073.00;;;16.70
19948;BMP180;10135;50.702;7.276;2023-04-15T12:39:15;99063.00;;;16.70
19948;BMP180;10135;50.702;7.276;2023-04-15T12:41:16;99074.00;;;16.60
19948;BMP180;10135;50.702;7.276;2023-04-15T12:43:17;99082.00;;;16.50
19948;BMP180;10135;50.702;7.276;2023-04-15T12:45:18;99088.00;;;16.50
19948;BMP180;10135;50.702;7.276;2023-04-15T12:47:18;99097.00;;;16.40
19948;BMP180;10135;50.702;7.276;2023-04-15T12:49:23;99094.00;;;16.30
19948;BMP180;10135;50.702;7.276;2023-04-15T12:51:24;99094.00;;;16.30
19948;BMP180;10135;50.702;7.276;2023-04-15T12:53:27;99096.00;;;16.30
19948;BMP180;10135;50.702;7.276;2023-04-15T12:55:28;99105.00;;;16.30
19948;BMP180;10135;50.702;7.276;2023-04-15T12:57:29;99107.00;;;16.30
19948;BMP180;10135;50.702;7.276;2023-04-15T12:59:30;99114.00;;;16.30
19948;BMP180;10135;50.702;7.276;2023-04-15T13:01:31;99116.00;;;16.20
19948;BMP180;10135;50.702;7.276;2023-04-15T13:03:32;99110.00;;;16.20
19948;BMP180;10135;50.702;7.276;2023-04-15T13:05:32;99119.00;;;16.10
19948;BMP180;10135;50.702;7.276;2023-04-15T13:07:33;99116.00;;;16.10
19948;BMP180;10135;50.702;7.276;2023-04-15T13:09:34;99123.00;;;16.10
19948;BMP180;10135;50.702;7.276;2023-04-15T13:11:34;99116.00;;;16.10
19948;BMP180;10135;50.702;7.276;2023-04-15T13:13:35;99122.00;;;16.00
19948;BMP180;10135;50.702;7.276;2023-04-15T13:15:36;99120.00;;;16.00
19948;BMP180;10135;50.702;7.276;2023-04-15T13:17:37;99124.00;;;16.00
19948;BMP180;10135;50.702;7.276;2023-04-15T13:19:38;99132.00;;;16.00
19948;BMP180;10135;50.702;7.276;2023-04-15T13:21:38;99127.00;;;15.90
19948;BMP180;10135;50.702;7.276;2023-04-15T13:23:42;99127.00;;;15.90
19948;BMP180;10135;50.702;7.276;2023-04-15T13:25:44;99126.00;;;15.90
19948;BMP180;10135;50.702;7.276;2023-04-15T13:27:45;99129.00;;;15.90
19948;BMP180;10135;50.702;7.276;2023-04-15T13:29:46;99139.00;;;15.90
19948;BMP180;10135;50.702;7.276;2023-04-15T13:31:46;99144.00;;;15.90
19948;BMP180;10135;50.702;7.276;2023-04-15T13:33:47;99139.00;;;15.80
19948;BMP180;10135;50.702;7.276;2023-04-15T13:35:47;99147.00;;;15.80
19948;BMP180;10135;50.702;7.276;2023-04-15T13:37:48;99147.00;;;15.80
19948;BMP180;10135;50.702;7.276;2023-04-15T13:39:49;99147.00;;;15.80
19948;BMP180;10135;50.702;7.276;2023-04-15T13:41:49;99151.00;;;15.80
19948;BMP180;10135;50.702;7.276;2023-04-15T13:43:50;99157.00;;;15.80
19948;BMP180;10135;50.702;7.276;2023-04-15T13:45:51;99153.00;;;15.80
19948;BMP180;10135;50.702;7.276;2023-04-15T13:47:52;99160.00;;;15.80
19948;BMP180;10135;50.702;7.276;2023-04-15T13:49:53;99159.00;;;15.80
19948;BMP180;10135;50.702;7.276;2023-04-15T13:51:55;99162.00;;;15.80
19948;BMP180;10135;50.702;7.276;2023-04-15T13:53:56;99159.00;;;15.80
19948;BMP180;10135;50.702;7.276;2023-04-15T13:55:57;99160.00;;;15.90
19948;BMP180;10135;50.702;7.276;2023-04-15T13:57:58;99159.00;;;15.90
19948;BMP180;10135;50.702;7.276;2023-04-15T13:59:58;99174.00;;;15.90
19948;BMP180;10135;50.702;7.276;2023-04-15T14:01:59;99172.00;;;15.90
19948;BMP180;10135;50.702;7.276;2023-04-15T14:04:00;99178.00;;;15.90
19948;BMP180;10135;50.702;7.276;2023-04-15T14:06:01;99182.00;;;15.90
19948;BMP180;10135;50.702;7.276;2023-04-15T14:08:01;99181.00;;;15.90
19948;BMP180;10135;50.702;7.276;2023-04-15T14:10:03;99188.00;;;15.90
19948;BMP180;10135;50.702;7.276;2023-04-15T14:12:04;99186.00;;;16.00
19948;BMP180;10135;50.702;7.276;2023-04-15T14:14:05;99196.00;;;16.00
19948;BMP180;10135;50.702;7.276;2023-04-15T14:16:05;99198.00;;;16.00
19948;BMP180;10135;50.702;7.276;2023-04-15T14:18:07;99190.00;;;16.00
19948;BMP180;10135;50.702;7.276;2023-04-15T14:20:08;99185.00;;;15.90
19948;BMP180;10135;50.702;7.276;2023-04-15T14:22:09;99188.00;;;15.90
19948;BMP180;10135;50.702;7.276;2023-04-15T14:24:10;99194.00;;;15.80
19948;BMP180;10135;50.702;7.276;2023-04-15T14:26:10;99190.00;;;15.80
19948;BMP180;10135;50.702;7.276;2023-04-15T14:28:11;99201.00;;;15.80
19948;BMP180;10135;50.702;7.276;2023-04-15T14:30:12;99201.00;;;15.70
19948;BMP180;10135;50.702;7.276;2023-04-15T14:32:13;99202.00;;;15.70
19948;BMP180;10135;50.702;7.276;2023-04-15T14:34:13;99209.00;;;15.70
19948;BMP180;10135;50.702;7.276;2023-04-15T14:36:14;99213.00;;;15.70
19948;BMP180;10135;50.702;7.276;2023-04-15T14:38:15;99210.00;;;15.60
19948;BMP180;10135;50.702;7.276;2023-04-15T14:40:15;99214.00;;;15.60
19948;BMP180;10135;50.702;7.276;2023-04-15T14:42:16;99207.00;;;15.60
19948;BMP180;10135;50.702;7.276;2023-04-15T14:44:17;99210.00;;;15.50
19948;BMP180;10135;50.702;7.276;2023-04-15T14:46:17;99207.00;;;15.50
19948;BMP180;10135;50.702;7.276;2023-04-15T14:48:18;99211.00;;;15.50
19948;BMP180;10135;50.702;7.276;2023-04-15T14:50:19;99220.00;;;15.50
19948;BMP180;10135;50.702;7.276;2023-04-15T14:52:19;99221.00;;;15.40
19948;BMP180;10135;50.702;7.276;2023-04-15T14:54:20;99226.00;;;15.40
19948;BMP180;10135;50.702;7.276;2023-04-15T14:56:21;99225.00;;;15.40
19948;BMP180;10135;50.702;7.276;2023-04-15T14:58:21;99232.00;;;15.40
19948;BMP180;10135;50.702;7.276;2023-04-15T15:00:22;99233.00;;;15.30
19948;BMP180;10135;50.702;7.276;2023-04-15T15:02:23;99241.00;;;15.30
19948;BMP180;10135;50.702;7.276;2023-04-15T15:04:23;99244.00;;;15.30
19948;BMP180;10135;50.702;7.276;2023-04-15T15:06:24;99251.00;;;15.30
19948;BMP180;10135;50.702;7.276;2023-04-15T15:08:25;99246.00;;;15.20
19948;BMP180;10135;50.702;7.276;2023-04-15T15:10:26;99246.00;;;15.20
19948;BMP180;10135;50.702;7.276;2023-04-15T15:12:27;99258.00;;;15.20
19948;BMP180;10135;50.702;7.276;2023-04-15T15:14:27;99253.00;;;15.20
19948;BMP180;10135;50.702;7.276;2023-04-15T15:16:28;99262.00;;;15.10
19948;BMP180;10135;50.702;7.276;2023-04-15T15:18:29;99269.00;;;15.10
19948;BMP180;10135;50.702;7.276;2023-04-15T15:20:30;99267.00;;;15.10
19948;BMP180;10135;50.702;7.276;2023-04-15T15:22:32;99265.00;;;15.10
19948;BMP180;10135;50.702;7.276;2023-04-15T15:24:32;99264.00;;;15.00
19948;BMP180;10135;50.702;7.276;2023-04-15T15:26:33;99266.00;;;15.00
19948;BMP180;10135;50.702;7.276;2023-04-15T15:28:34;99269.00;;;15.00
19948;BMP180;10135;50.702;7.276;2023-04-15T15:30:35;99273.00;;;15.00
19948;BMP180;10135;50.702;7.276;2023-04-15T15:32:38;99275.00;;;15.00
19948;BMP180;10135;50.702;7.276;2023-04-15T15:34:38;99279.00;;;15.00
19948;BMP180;10135;50.702;7.276;2023-04-15T15:36:39;99283.00;;;15.00
19948;BMP180;10135;50.702;7.276;2023-04-15T15:38:40;99289.00;;;14.90
19948;BMP180;10135;50.702;7.276;2023-04-15T15:40:41;99285.00;;;14.90
19948;BMP180;10135;50.702;7.276;2023-04-15T15:42:41;99280.00;;;14.90
19948;BMP180;10135;50.702;7.276;2023-04-15T15:44:42;99288.00;;;14.90
19948;BMP180;10135;50.702;7.276;2023-04-15T15:46:43;99290.00;;;14.90
19948;BMP180;10135;50.702;7.276;2023-04-15T15:48:44;99297.00;;;14.80
19948;BMP180;10135;50.702;7.276;2023-04-15T15:50:44;99295.00;;;14.80
19948;BMP180;10135;50.702;7.276;2023-04-15T15:52:45;99298.00;;;14.80
19948;BMP180;10135;50.702;7.276;2023-04-15T15:54:47;99310.00;;;14.80
19948;BMP180;10135;50.702;7.276;2023-04-15T15:56:48;99309.00;;;14.80
19948;BMP180;10135;50.702;7.276;2023-04-15T15:58:49;99305.00;;;14.80
19948;BMP180;10135;50.702;7.276;2023-04-15T16:00:50;99307.00;;;14.80
19948;BMP180;10135;50.702;7.276;2023-04-15T16:02:54;99310.00;;;14.70
19948;BMP180;10135;50.702;7.276;2023-04-15T16:04:56;99312.00;;;14.70
19948;BMP180;10135;50.702;7.276;2023-04-15T16:06:57;99312.00;;;14.70
19948;BMP180;10135;50.702;7.276;2023-04-15T16:08:58;99322.00;;;14.70
19948;BMP180;10135;50.702;7.276;2023-04-15T16:10:58;99322.00;;;14.70
19948;BMP180;10135;50.702;7.276;2023-04-15T16:12:59;99325.00;;;14.70
19948;BMP180;10135;50.702;7.276;2023-04-15T16:15:00;99318.00;;;14.70
19948;BMP180;10135;50.702;7.276;2023-04-15T16:17:01;99321.00;;;14.60
19948;BMP180;10135;50.702;7.276;2023-04-15T16:19:02;99326.00;;;14.60
19948;BMP180;10135;50.702;7.276;2023-04-15T16:21:02;99327.00;;;14.60
19948;BMP180;10135;50.702;7.276;2023-04-15T16:23:14;99333.00;;;14.60
19948;BMP180;10135;50.702;7.276;2023-04-15T16:25:15;99326.00;;;14.60
19948;BMP180;10135;50.702;7.276;2023-04-15T16:27:16;99342.00;;;14.60
19948;BMP180;10135;50.702;7.276;2023-04-15T16:29:17;99334.00;;;14.60
19948;BMP180;10135;50.702;7.276;2023-04-15T16:31:18;99341.00;;;14.50
19948;BMP180;10135;50.702;7.276;2023-04-15T16:33:18;99338.00;;;14.50
19948;BMP180;10135;50.702;7.276;2023-04-15T16:35:19;99349.00;;;14.50
19948;BMP180;10135;50.702;7.276;2023-04-15T16:37:20;99348.00;;;14.50
19948;BMP180;10135;50.702;7.276;2023-04-15T16:39:21;99345.00;;;14.50
19948;BMP180;10135;50.702;7.276;2023-04-15T16:41:23;99356.00;;;14.50
19948;BMP180;10135;50.702;7.276;2023-04-15T16:43:24;99355.00;;;14.40
19948;BMP180;10135;50.702;7.276;2023-04-15T16:45:25;99364.00;;;14.40
19948;BMP180;10135;50.702;7.276;2023-04-15T16:47:26;99364.00;;;14.40
19948;BMP180;10135;50.702;7.276;2023-04-15T16:49:26;99360.00;;;14.40
19948;BMP180;10135;50.702;7.276;2023-04-15T16:51:28;99364.00;;;14.40
19948;BMP180;10135;50.702;7.276;2023-04-15T16:53:31;99366.00;;;14.30
19948;BMP180;10135;50.702;7.276;2023-04-15T16:55:32;99368.00;;;14.30
19948;BMP180;10135;50.702;7.276;2023-04-15T16:57:33;99376.00;;;14.30
19948;BMP180;10135;50.702;7.276;2023-04-15T16:59:33;99367.00;;;14.30
19948;BMP180;10135;50.702;7.276;2023-04-15T17:01:34;99374.00;;;14.30
19948;BMP180;10135;50.702;7.276;2023-04-15T17:03:35;99369.00;;;14.30
19948;BMP180;10135;50.702;7.276;2023-04-15T17:05:37;99383.00;;;14.20
19948;BMP180;10135;50.702;7.276;2023-04-15T17:07:38;99385.00;;;14.20
19948;BMP180;10135;50.702;7.276;2023-04-15T17:09:39;99394.00;;;14.20
19948;BMP180;10135;50.702;7.276;2023-04-15T17:11:40;99398.00;;;14.20
19948;BMP180;10135;50.702;7.276;2023-04-15T17:13:42;99401.00;;;14.20
19948;BMP180;10135;50.702;7.276;2023-04-15T17:15:43;99396.00;;;14.20